sensor_id;sensor_type;location;lat;lon;timestamp;temperature;humidity
72576;DHT22;60613;48.658;2.328;2023-09-30T06:02:41;22.60;51.80
72576;DHT22;60613;48.658;2.328;2023-09-30T06:05:08;22.60;52.80
72576;DHT22;60613;48.658;2.328;2023-09-30T06:07:34;22.60;52.70
72576;DHT22;60613;48.658;2.328;2023-09-30T06:09:59;22.60;52.60
72576;DHT22;60613;48.658;2.328;2023-09-30T06:12:28;22.60;52.60
72576;DHT22;60613;48.658;2.328;2023-09-30T06:14:54;22.60;52.50
72576;DHT22;60613;48.658;2.328;2023-09-30T06:17:20;22.60;52.50
72576;DHT22;60613;48.658;2.328;2023-09-30T06:19:47;22.60;52.40
72576;DHT22;60613;48.658;2.328;2023-09-30T06:22:15;22.60;52.40
72576;DHT22;60613;48.658;2.328;2023-09-30T06:24:41;22.60;52.20
72576;DHT22;60613;48.658;2.328;2023-09-30T06:27:07;22.60;52.30
72576;DHT22;60613;48.658;2.328;2023-09-30T06:29:32;22.60;52.30
72576;DHT22;60613;48.658;2.328;2023-09-30T06:31:59;22.60;52.20
72576;DHT22;60613;48.658;2.328;2023-09-30T06:34:24;22.70;52.20
72576;DHT22;60613;48.658;2.328;2023-09-30T06:36:50;22.70;52.30
72576;DHT22;60613;48.658;2.328;2023-09-30T06:39:18;22.60;52.10
72576;DHT22;60613;48.658;2.328;2023-09-30T06:41:44;22.60;52.10
72576;DHT22;60613;48.658;2.328;2023-09-30T06:44:11;22.70;52.20
72576;DHT22;60613;48.658;2.328;2023-09-30T06:46:38;22.60;52.10
72576;DHT22;60613;48.658;2.328;2023-09-30T06:49:05;22.60;52.10
72576;DHT22;60613;48.658;2.328;2023-09-30T06:51:31;22.70;52.10
72576;DHT22;60613;48.658;2.328;2023-09-30T06:53:56;22.70;52.10
72576;DHT22;60613;48.658;2.328;2023-09-30T06:56:22;22.60;52.00
72576;DHT22;60613;48.658;2.328;2023-09-30T06:58:47;22.70;52.00
72576;DHT22;60613;48.658;2.328;2023-09-30T07:01:16;22.60;52.10
72576;DHT22;60613;48.658;2.328;2023-09-30T07:03:45;22.70;52.10
72576;DHT22;60613;48.658;2.328;2023-09-30T07:06:11;22.60;53.10
72576;DHT22;60613;48.658;2.328;2023-09-30T07:08:36;22.60;51.90
72576;DHT22;60613;48.658;2.328;2023-09-30T07:11:02;22.60;52.00
72576;DHT22;60613;48.658;2.328;2023-09-30T07:13:30;22.60;51.90
72576;DHT22;60613;48.658;2.328;2023-09-30T07:15:56;22.60;51.90
72576;DHT22;60613;48.658;2.328;2023-09-30T07:18:22;22.60;52.00
72576;DHT22;60613;48.658;2.328;2023-09-30T07:20:50;22.60;51.90
72576;DHT22;60613;48.658;2.328;2023-09-30T07:23:16;22.60;51.90
72576;DHT22;60613;48.658;2.328;2023-09-30T07:25:42;22.60;52.00
72576;DHT22;60613;48.658;2.328;2023-09-30T07:28:08;22.60;51.80
72576;DHT22;60613;48.658;2.328;2023-09-30T07:30:37;22.60;51.80
72576;DHT22;60613;48.658;2.328;2023-09-30T07:33:02;22.60;51.80
72576;DHT22;60613;48.658;2.328;2023-09-30T07:35:28;22.60;51.80
72576;DHT22;60613;48.658;2.328;2023-09-30T07:37:54;22.60;51.80
72576;DHT22;60613;48.658;2.328;2023-09-30T07:40:19;22.60;51.80
72576;DHT22;60613;48.658;2.328;2023-09-30T07:42:46;22.60;51.90
72576;DHT22;60613;48.658;2.328;2023-09-30T07:45:12;22.70;51.90
72576;DHT22;60613;48.658;2.328;2023-09-30T07:47:45;22.60;51.80
72576;DHT22;60613;48.658;2.328;2023-09-30T07:50:12;22.70;51.80
72576;DHT22;60613;48.658;2.328;2023-09-30T07:52:41;22.70;51.70
72576;DHT22;60613;48.658;2.328;2023-09-30T07:55:08;22.80;50.40
72576;DHT22;60613;48.658;2.328;2023-09-30T07:57:34;22.70;49.10
72576;DHT22;60613;48.658;2.328;2023-09-30T08:00:00;22.50;49.10
72576;DHT22;60613;48.658;2.328;2023-09-30T08:02:28;22.50;48.90
72576;DHT22;60613;48.658;2.328;2023-09-30T08:04:59;22.40;49.00
72576;DHT22;60613;48.658;2.328;2023-09-30T08:07:25;22.30;49.30
72576;DHT22;60613;48.658;2.328;2023-09-30T08:09:51;22.20;49.60
72576;DHT22;60613;48.658;2.328;2023-09-30T08:12:16;22.20;50.60
72576;DHT22;60613;48.658;2.328;2023-09-30T08:14:42;22.30;50.50
72576;DHT22;60613;48.658;2.328;2023-09-30T08:17:09;22.40;50.00
72576;DHT22;60613;48.658;2.328;2023-09-30T08:19:36;22.60;49.30
72576;DHT22;60613;48.658;2.328;2023-09-30T08:22:02;22.70;49.10
72576;DHT22;60613;48.658;2.328;2023-09-30T08:24:29;22.70;48.60
72576;DHT22;60613;48.658;2.328;2023-09-30T08:26:55;22.70;48.70
72576;DHT22;60613;48.658;2.328;2023-09-30T08:29:22;22.70;48.80
72576;DHT22;60613;48.658;2.328;2023-09-30T08:31:47;22.70;49.10
72576;DHT22;60613;48.658;2.328;2023-09-30T08:34:15;22.70;49.40
72576;DHT22;60613;48.658;2.328;2023-09-30T08:36:42;22.70;49.50
72576;DHT22;60613;48.658;2.328;2023-09-30T08:39:08;22.80;49.90
72576;DHT22;60613;48.658;2.328;2023-09-30T08:41:36;22.80;49.40
72576;DHT22;60613;48.658;2.328;2023-09-30T08:44:03;22.70;49.60
72576;DHT22;60613;48.658;2.328;2023-09-30T08:46:33;22.70;49.90
72576;DHT22;60613;48.658;2.328;2023-09-30T08:49:03;22.70;49.70
72576;DHT22;60613;48.658;2.328;2023-09-30T08:51:30;22.80;49.70
72576;DHT22;60613;48.658;2.328;2023-09-30T08:53:57;22.90;49.60
72576;DHT22;60613;48.658;2.328;2023-09-30T08:56:27;22.90;49.50
72576;DHT22;60613;48.658;2.328;2023-09-30T08:58:57;22.90;49.20
72576;DHT22;60613;48.658;2.328;2023-09-30T09:01:25;22.90;49.30
72576;DHT22;60613;48.658;2.328;2023-09-30T09:03:50;23.00;49.10
72576;DHT22;60613;48.658;2.328;2023-09-30T09:06:19;23.00;49.10
72576;DHT22;60613;48.658;2.328;2023-09-30T09:08:45;23.10;48.90
72576;DHT22;60613;48.658;2.328;2023-09-30T09:11:11;23.10;49.00
72576;DHT22;60613;48.658;2.328;2023-09-30T09:13:48;23.00;49.30
72576;DHT22;60613;48.658;2.328;2023-09-30T09:16:21;22.90;49.50
72576;DHT22;60613;48.658;2.328;2023-09-30T09:18:47;22.80;49.50
72576;DHT22;60613;48.658;2.328;2023-09-30T09:21:13;22.90;50.00
72576;DHT22;60613;48.658;2.328;2023-09-30T09:23:40;23.00;49.50
72576;DHT22;60613;48.658;2.328;2023-09-30T09:26:06;23.10;49.60
72576;DHT22;60613;48.658;2.328;2023-09-30T09:28:37;23.20;49.70
72576;DHT22;60613;48.658;2.328;2023-09-30T09:31:19;23.20;49.60
72576;DHT22;60613;48.658;2.328;2023-09-30T09:33:46;23.30;49.60
72576;DHT22;60613;48.658;2.328;2023-09-30T09:36:12;23.30;49.50
72576;DHT22;60613;48.658;2.328;2023-09-30T09:38:58;23.40;49.50
72576;DHT22;60613;48.658;2.328;2023-09-30T09:41:24;23.40;49.80
72576;DHT22;60613;48.658;2.328;2023-09-30T09:43:49;23.40;49.40
72576;DHT22;60613;48.658;2.328;2023-09-30T09:46:18;23.30;50.70
72576;DHT22;60613;48.658;2.328;2023-09-30T09:48:45;23.40;50.10
72576;DHT22;60613;48.658;2.328;2023-09-30T09:51:11;23.40;49.70
72576;DHT22;60613;48.658;2.328;2023-09-30T09:53:39;23.40;49.60
72576;DHT22;60613;48.658;2.328;2023-09-30T09:56:08;23.40;49.70
72576;DHT22;60613;48.658;2.328;2023-09-30T09:58:35;23.40;49.90
72576;DHT22;60613;48.658;2.328;2023-09-30T10:01:05;23.40;50.80
72576;DHT22;60613;48.658;2.328;2023-09-30T10:03:32;23.40;51.20
72576;DHT22;60613;48.658;2.328;2023-09-30T10:05:59;23.40;51.60
72576;DHT22;60613;48.658;2.328;2023-09-30T10:08:35;23.50;51.10
72576;DHT22;60613;48.658;2.328;2023-09-30T10:11:02;23.50;51.40
72576;DHT22;60613;48.658;2.328;2023-09-30T10:13:55;23.60;51.00
72576;DHT22;60613;48.658;2.328;2023-09-30T10:21:34;23.60;51.20
72576;DHT22;60613;48.658;2.328;2023-09-30T10:29:48;23.70;52.10
72576;DHT22;60613;48.658;2.328;2023-09-30T10:32:15;23.70;51.80
72576;DHT22;60613;48.658;2.328;2023-09-30T10:34:47;23.70;52.20
72576;DHT22;60613;48.658;2.328;2023-09-30T10:37:23;23.70;52.20
72576;DHT22;60613;48.658;2.328;2023-09-30T10:40:00;23.70;51.90
72576;DHT22;60613;48.658;2.328;2023-09-30T10:42:47;23.70;52.00
72576;DHT22;60613;48.658;2.328;2023-09-30T10:50:57;23.70;51.90
72576;DHT22;60613;48.658;2.328;2023-09-30T10:53:26;23.80;52.00
72576;DHT22;60613;48.658;2.328;2023-09-30T10:55:58;23.80;51.80
72576;DHT22;60613;48.658;2.328;2023-09-30T11:01:14;23.80;51.30
72576;DHT22;60613;48.658;2.328;2023-09-30T11:03:41;23.80;51.10
72576;DHT22;60613;48.658;2.328;2023-09-30T11:06:07;23.80;51.20
72576;DHT22;60613;48.658;2.328;2023-09-30T11:08:33;23.80;50.80
72576;DHT22;60613;48.658;2.328;2023-09-30T11:10:59;23.80;50.80
72576;DHT22;60613;48.658;2.328;2023-09-30T11:13:33;23.90;50.50
72576;DHT22;60613;48.658;2.328;2023-09-30T11:16:01;23.90;50.70
72576;DHT22;60613;48.658;2.328;2023-09-30T11:18:28;23.90;51.00
72576;DHT22;60613;48.658;2.328;2023-09-30T11:21:09;23.90;50.20
72576;DHT22;60613;48.658;2.328;2023-09-30T11:23:36;23.90;49.50
72576;DHT22;60613;48.658;2.328;2023-09-30T11:26:02;23.90;49.40
72576;DHT22;60613;48.658;2.328;2023-09-30T11:28:42;23.90;49.00
72576;DHT22;60613;48.658;2.328;2023-09-30T11:31:12;23.90;48.50
72576;DHT22;60613;48.658;2.328;2023-09-30T11:33:53;23.80;48.90
72576;DHT22;60613;48.658;2.328;2023-09-30T11:36:20;23.80;49.20
72576;DHT22;60613;48.658;2.328;2023-09-30T11:38:47;23.70;49.20
72576;DHT22;60613;48.658;2.328;2023-09-30T11:41:13;23.70;49.20
72576;DHT22;60613;48.658;2.328;2023-09-30T11:43:57;23.80;49.00
72576;DHT22;60613;48.658;2.328;2023-09-30T11:46:23;23.80;48.80
72576;DHT22;60613;48.658;2.328;2023-09-30T11:48:57;23.80;48.70
72576;DHT22;60613;48.658;2.328;2023-09-30T11:51:25;23.80;48.90
72576;DHT22;60613;48.658;2.328;2023-09-30T11:53:52;23.70;49.00
72576;DHT22;60613;48.658;2.328;2023-09-30T11:56:23;23.70;48.90
72576;DHT22;60613;48.658;2.328;2023-09-30T11:58:54;23.70;49.00
72576;DHT22;60613;48.658;2.328;2023-09-30T12:01:19;23.70;49.40
72576;DHT22;60613;48.658;2.328;2023-09-30T12:03:47;23.60;49.30
72576;DHT22;60613;48.658;2.328;2023-09-30T12:06:13;23.70;49.40
72576;DHT22;60613;48.658;2.328;2023-09-30T12:08:42;23.90;49.10
72576;DHT22;60613;48.658;2.328;2023-09-30T12:11:08;23.90;49.00
72576;DHT22;60613;48.658;2.328;2023-09-30T12:13:34;24.00;49.10
72576;DHT22;60613;48.658;2.328;2023-09-30T12:15:59;24.00;48.90
72576;DHT22;60613;48.658;2.328;2023-09-30T12:18:25;24.00;48.90
72576;DHT22;60613;48.658;2.328;2023-09-30T12:20:52;24.00;49.00
72576;DHT22;60613;48.658;2.328;2023-09-30T12:23:18;24.00;48.90
72576;DHT22;60613;48.658;2.328;2023-09-30T12:25:44;24.10;49.00
72576;DHT22;60613;48.658;2.328;2023-09-30T12:28:10;24.10;48.80
72576;DHT22;60613;48.658;2.328;2023-09-30T12:30:35;24.10;49.00
72576;DHT22;60613;48.658;2.328;2023-09-30T12:33:01;24.10;48.80
72576;DHT22;60613;48.658;2.328;2023-09-30T12:35:27;24.10;48.70
72576;DHT22;60613;48.658;2.328;2023-09-30T12:37:52;24.10;48.70
72576;DHT22;60613;48.658;2.328;2023-09-30T12:40:18;24.10;48.60
72576;DHT22;60613;48.658;2.328;2023-09-30T12:42:44;24.10;48.40
72576;DHT22;60613;48.658;2.328;2023-09-30T12:45:11;24.10;48.50
72576;DHT22;60613;48.658;2.328;2023-09-30T12:47:37;24.20;48.60
72576;DHT22;60613;48.658;2.328;2023-09-30T12:50:04;24.10;48.50
72576;DHT22;60613;48.658;2.328;2023-09-30T12:52:29;24.20;48.40
72576;DHT22;60613;48.658;2.328;2023-09-30T12:54:57;24.20;48.50
72576;DHT22;60613;48.658;2.328;2023-09-30T12:57:23;24.20;48.50
72576;DHT22;60613;48.658;2.328;2023-09-30T12:59:49;24.20;49.10
72576;DHT22;60613;48.658;2.328;2023-09-30T13:02:15;24.20;48.90
72576;DHT22;60613;48.658;2.328;2023-09-30T13:04:44;24.20;49.20
72576;DHT22;60613;48.658;2.328;2023-09-30T13:07:10;24.20;49.90
72576;DHT22;60613;48.658;2.328;2023-09-30T13:09:38;24.20;48.90
72576;DHT22;60613;48.658;2.328;2023-09-30T13:12:03;24.10;49.10
72576;DHT22;60613;48.658;2.328;2023-09-30T13:14:29;24.00;49.20
72576;DHT22;60613;48.658;2.328;2023-09-30T13:16:55;24.10;49.50
72576;DHT22;60613;48.658;2.328;2023-09-30T13:19:21;24.00;49.30
72576;DHT22;60613;48.658;2.328;2023-09-30T13:21:48;24.00;49.20
72576;DHT22;60613;48.658;2.328;2023-09-30T13:24:13;24.00;49.30
72576;DHT22;60613;48.658;2.328;2023-09-30T13:26:39;24.00;49.30
72576;DHT22;60613;48.658;2.328;2023-09-30T13:29:05;24.00;49.60
72576;DHT22;60613;48.658;2.328;2023-09-30T13:31:31;24.00;50.00
72576;DHT22;60613;48.658;2.328;2023-09-30T13:33:57;24.00;49.80
72576;DHT22;60613;48.658;2.328;2023-09-30T13:36:22;24.00;50.00
72576;DHT22;60613;48.658;2.328;2023-09-30T13:38:48;24.00;49.80
72576;DHT22;60613;48.658;2.328;2023-09-30T13:41:14;24.00;50.10
72576;DHT22;60613;48.658;2.328;2023-09-30T13:43:41;24.10;51.30
72576;DHT22;60613;48.658;2.328;2023-09-30T13:46:07;24.00;49.80
72576;DHT22;60613;48.658;2.328;2023-09-30T13:48:33;24.10;49.80
72576;DHT22;60613;48.658;2.328;2023-09-30T13:51:06;24.10;49.70
72576;DHT22;60613;48.658;2.328;2023-09-30T13:53:32;24.10;49.80
72576;DHT22;60613;48.658;2.328;2023-09-30T13:55:57;24.10;49.90
72576;DHT22;60613;48.658;2.328;2023-09-30T13:58:23;24.10;49.90
72576;DHT22;60613;48.658;2.328;2023-09-30T14:00:50;24.10;50.80
72576;DHT22;60613;48.658;2.328;2023-09-30T14:03:19;24.10;49.40
72576;DHT22;60613;48.658;2.328;2023-09-30T14:05:46;24.20;49.40
72576;DHT22;60613;48.658;2.328;2023-09-30T14:08:12;24.20;49.30
72576;DHT22;60613;48.658;2.328;2023-09-30T14:10:38;24.20;49.40
72576;DHT22;60613;48.658;2.328;2023-09-30T14:13:04;24.20;49.20
72576;DHT22;60613;48.658;2.328;2023-09-30T14:15:30;24.20;49.00
72576;DHT22;60613;48.658;2.328;2023-09-30T14:17:57;24.20;49.30
72576;DHT22;60613;48.658;2.328;2023-09-30T14:20:24;24.20;49.20
72576;DHT22;60613;48.658;2.328;2023-09-30T14:22:52;24.10;49.10
72576;DHT22;60613;48.658;2.328;2023-09-30T14:25:18;24.20;49.20
72576;DHT22;60613;48.658;2.328;2023-09-30T14:27:44;24.20;49.20
72576;DHT22;60613;48.658;2.328;2023-09-30T14:30:10;24.30;49.30
72576;DHT22;60613;48.658;2.328;2023-09-30T14:32:36;24.30;49.10
72576;DHT22;60613;48.658;2.328;2023-09-30T14:35:04;24.30;49.00
72576;DHT22;60613;48.658;2.328;2023-09-30T14:37:31;24.20;49.20
72576;DHT22;60613;48.658;2.328;2023-09-30T14:39:56;24.20;49.30
72576;DHT22;60613;48.658;2.328;2023-09-30T14:42:22;24.30;49.40
72576;DHT22;60613;48.658;2.328;2023-09-30T14:44:48;24.20;49.60
72576;DHT22;60613;48.658;2.328;2023-09-30T14:47:13;24.20;49.40
72576;DHT22;60613;48.658;2.328;2023-09-30T14:49:40;24.20;49.20
72576;DHT22;60613;48.658;2.328;2023-09-30T14:52:06;24.30;49.30
72576;DHT22;60613;48.658;2.328;2023-09-30T14:54:32;24.30;49.60
72576;DHT22;60613;48.658;2.328;2023-09-30T14:56:57;24.20;49.40
72576;DHT22;60613;48.658;2.328;2023-09-30T14:59:23;24.30;49.80
72576;DHT22;60613;48.658;2.328;2023-09-30T15:01:49;24.20;49.40
72576;DHT22;60613;48.658;2.328;2023-09-30T15:04:15;24.20;49.40
72576;DHT22;60613;48.658;2.328;2023-09-30T15:06:41;24.20;49.30
72576;DHT22;60613;48.658;2.328;2023-09-30T15:09:07;24.20;49.40
72576;DHT22;60613;48.658;2.328;2023-09-30T15:11:39;24.30;49.40
72576;DHT22;60613;48.658;2.328;2023-09-30T15:14:04;24.30;49.40
72576;DHT22;60613;48.658;2.328;2023-09-30T15:16:33;24.30;49.20
72576;DHT22;60613;48.658;2.328;2023-09-30T15:18:59;24.30;49.20
72576;DHT22;60613;48.658;2.328;2023-09-30T15:21:24;24.30;49.00
72576;DHT22;60613;48.658;2.328;2023-09-30T15:23:50;24.30;49.10
72576;DHT22;60613;48.658;2.328;2023-09-30T15:26:16;24.30;49.20
72576;DHT22;60613;48.658;2.328;2023-09-30T15:28:42;24.30;49.40
72576;DHT22;60613;48.658;2.328;2023-09-30T15:31:08;24.30;49.50
72576;DHT22;60613;48.658;2.328;2023-09-30T15:33:34;24.30;49.40
72576;DHT22;60613;48.658;2.328;2023-09-30T15:36:08;24.30;50.30
72576;DHT22;60613;48.658;2.328;2023-09-30T15:38:33;24.30;49.50
72576;DHT22;60613;48.658;2.328;2023-09-30T15:40:59;24.30;49.20
72576;DHT22;60613;48.658;2.328;2023-09-30T15:43:27;24.40;49.60
72576;DHT22;60613;48.658;2.328;2023-09-30T15:45:52;24.40;50.10
72576;DHT22;60613;48.658;2.328;2023-09-30T15:48:19;24.40;49.70
72576;DHT22;60613;48.658;2.328;2023-09-30T15:50:45;24.40;50.10
72576;DHT22;60613;48.658;2.328;2023-09-30T15:53:11;24.40;50.80
72576;DHT22;60613;48.658;2.328;2023-09-30T15:55:37;24.40;50.60
72576;DHT22;60613;48.658;2.328;2023-09-30T15:58:05;24.50;50.90
72576;DHT22;60613;48.658;2.328;2023-09-30T16:00:35;24.50;50.90
72576;DHT22;60613;48.658;2.328;2023-09-30T16:03:02;24.60;50.80
72576;DHT22;60613;48.658;2.328;2023-09-30T16:05:28;24.60;50.70
72576;DHT22;60613;48.658;2.328;2023-09-30T16:07:53;24.60;50.50
72576;DHT22;60613;48.658;2.328;2023-09-30T16:10:19;24.70;50.80
72576;DHT22;60613;48.658;2.328;2023-09-30T16:12:44;24.70;50.70
72576;DHT22;60613;48.658;2.328;2023-09-30T16:15:10;24.70;50.40
72576;DHT22;60613;48.658;2.328;2023-09-30T16:17:37;24.70;50.20
72576;DHT22;60613;48.658;2.328;2023-09-30T16:20:03;24.70;50.20
72576;DHT22;60613;48.658;2.328;2023-09-30T16:22:30;24.70;50.20
72576;DHT22;60613;48.658;2.328;2023-09-30T16:24:57;24.80;50.20
72576;DHT22;60613;48.658;2.328;2023-09-30T16:27:23;24.70;50.50
72576;DHT22;60613;48.658;2.328;2023-09-30T16:29:48;24.70;50.60
72576;DHT22;60613;48.658;2.328;2023-09-30T16:32:14;24.70;50.40
72576;DHT22;60613;48.658;2.328;2023-09-30T16:34:40;24.70;50.40
72576;DHT22;60613;48.658;2.328;2023-09-30T16:37:05;24.70;50.60
72576;DHT22;60613;48.658;2.328;2023-09-30T16:39:31;24.70;50.20
72576;DHT22;60613;48.658;2.328;2023-09-30T16:41:56;24.70;50.30
72576;DHT22;60613;48.658;2.328;2023-09-30T16:44:22;24.70;50.10
72576;DHT22;60613;48.658;2.328;2023-09-30T16:46:48;24.70;50.00
72576;DHT22;60613;48.658;2.328;2023-09-30T16:49:16;24.80;50.00
72576;DHT22;60613;48.658;2.328;2023-09-30T16:51:42;24.80;49.90
72576;DHT22;60613;48.658;2.328;2023-09-30T16:54:07;24.80;49.80
72576;DHT22;60613;48.658;2.328;2023-09-30T16:56:34;24.80;50.10
72576;DHT22;60613;48.658;2.328;2023-09-30T16:58:59;24.80;50.60
72576;DHT22;60613;48.658;2.328;2023-09-30T17:01:25;24.80;50.60
72576;DHT22;60613;48.658;2.328;2023-09-30T17:03:51;24.70;50.50
72576;DHT22;60613;48.658;2.328;2023-09-30T17:06:16;24.70;50.60
72576;DHT22;60613;48.658;2.328;2023-09-30T17:08:42;24.70;50.60
72576;DHT22;60613;48.658;2.328;2023-09-30T17:11:07;24.70;50.70
72576;DHT22;60613;48.658;2.328;2023-09-30T17:13:33;24.60;50.80
72576;DHT22;60613;48.658;2.328;2023-09-30T17:15:59;24.60;50.60
72576;DHT22;60613;48.658;2.328;2023-09-30T17:18:25;24.60;50.70
72576;DHT22;60613;48.658;2.328;2023-09-30T17:20:52;24.60;50.60
72576;DHT22;60613;48.658;2.328;2023-09-30T17:23:18;24.60;50.30
72576;DHT22;60613;48.658;2.328;2023-09-30T17:25:43;24.60;50.50
72576;DHT22;60613;48.658;2.328;2023-09-30T17:28:09;24.60;50.50
72576;DHT22;60613;48.658;2.328;2023-09-30T17:30:35;24.60;50.50
72576;DHT22;60613;48.658;2.328;2023-09-30T17:33:01;24.50;50.30
72576;DHT22;60613;48.658;2.328;2023-09-30T17:35:28;24.50;50.40
72576;DHT22;60613;48.658;2.328;2023-09-30T17:37:54;24.50;50.50
72576;DHT22;60613;48.658;2.328;2023-09-30T17:40:20;24.50;50.30
72576;DHT22;60613;48.658;2.328;2023-09-30T17:42:46;24.50;50.40
72576;DHT22;60613;48.658;2.328;2023-09-30T17:45:12;24.50;50.30
72576;DHT22;60613;48.658;2.328;2023-09-30T17:47:38;24.60;50.20
72576;DHT22;60613;48.658;2.328;2023-09-30T17:50:06;24.60;50.00
72576;DHT22;60613;48.658;2.328;2023-09-30T17:52:33;24.60;50.00
72576;DHT22;60613;48.658;2.328;2023-09-30T17:54:59;24.60;50.00
72576;DHT22;60613;48.658;2.328;2023-09-30T17:57:25;24.60;50.10
72576;DHT22;60613;48.658;2.328;2023-09-30T17:59:51;24.60;50.20
72576;DHT22;60613;48.658;2.328;2023-09-30T18:02:16;24.60;50.30
72576;DHT22;60613;48.658;2.328;2023-09-30T18:04:42;24.60;50.20
72576;DHT22;60613;48.658;2.328;2023-09-30T18:07:08;24.60;49.90
72576;DHT22;60613;48.658;2.328;2023-09-30T18:09:34;24.60;50.30
72576;DHT22;60613;48.658;2.328;2023-09-30T18:12:00;24.60;50.20
72576;DHT22;60613;48.658;2.328;2023-09-30T18:14:26;24.50;50.40
72576;DHT22;60613;48.658;2.328;2023-09-30T18:16:52;24.50;50.40
72576;DHT22;60613;48.658;2.328;2023-09-30T18:19:17;24.60;50.50
72576;DHT22;60613;48.658;2.328;2023-09-30T18:21:45;24.60;50.40
72576;DHT22;60613;48.658;2.328;2023-09-30T18:24:11;24.60;50.40
72576;DHT22;60613;48.658;2.328;2023-09-30T18:26:36;24.60;50.40
72576;DHT22;60613;48.658;2.328;2023-09-30T18:29:02;24.60;50.40
72576;DHT22;60613;48.658;2.328;2023-09-30T18:31:27;24.60;50.50
72576;DHT22;60613;48.658;2.328;2023-09-30T18:33:53;24.60;50.30
72576;DHT22;60613;48.658;2.328;2023-09-30T18:36:18;24.60;50.60
72576;DHT22;60613;48.658;2.328;2023-09-30T18:38:44;24.60;50.60
72576;DHT22;60613;48.658;2.328;2023-09-30T18:41:16;24.60;50.70
72576;DHT22;60613;48.658;2.328;2023-09-30T18:43:45;24.50;50.70
72576;DHT22;60613;48.658;2.328;2023-09-30T18:46:12;24.60;50.80
72576;DHT22;60613;48.658;2.328;2023-09-30T18:48:43;24.60;50.40
72576;DHT22;60613;48.658;2.328;2023-09-30T18:51:09;24.60;50.60
72576;DHT22;60613;48.658;2.328;2023-09-30T18:53:38;24.60;50.60
72576;DHT22;60613;48.658;2.328;2023-09-30T18:56:05;24.60;50.70
72576;DHT22;60613;48.658;2.328;2023-09-30T18:58:32;24.50;50.80
